Time;durP1;ratioP1;P1;durP2;ratioP2;P2;SDS_P1;SDS_P2;PMS_P1;PMS_P2;Temp;Humidity;BMP_temperature;BMP_pressure;BME280_temperature;BME280_humidity;BME280_pressure;Samples;Min_cycle;Max_cycle;Signal;HPM_P1;HPM_P2
2022/06/23 00:00:49;;;;;;;;;;;;;;;15.25;60.22;100546.77;1747447;80;27453;-55
2022/06/23 00:03:20;;;;;;;;;;;;;;;15.14;59.84;100545.27;1747298;81;25884;-55
2022/06/23 00:05:50;;;;;;;;;;;;;;;14.99;61.49;100543.27;1744140;81;25729;-52
2022/06/23 00:08:17;;;;;;;;;;;;;;;14.83;61.79;100542.77;1743512;81;26037;-55
2022/06/23 00:10:50;;;;;;;;;;;;;;;14.74;61.85;100539.72;1743854;80;26312;-55
2022/06/23 00:13:26;;;;;;;;;;;;;;;14.69;62.08;100542.94;1747098;80;27535;-55
2022/06/23 00:15:54;;;;;;;;;;;;;;;14.61;62.48;100535.30;1746174;80;25759;-55
2022/06/23 00:18:26;;;;;;;;;;;;;;;14.56;62.68;100543.41;1745542;81;26091;-56
2022/06/23 00:20:59;;;;;;;;;;;;;;;14.55;62.82;100536.82;1744221;81;26216;-55
2022/06/23 00:23:34;;;;;;;;;;;;;;;14.52;63.44;100542.55;1743225;81;25988;-55
2022/06/23 00:26:16;;;;;;;;;;;;;;;14.54;62.75;100540.53;1738899;81;28345;-54
2022/06/23 00:28:46;;;;;;;;;;;;;;;14.56;63.48;100539.87;1741860;80;25906;-55
2022/06/23 00:31:40;;;;;;;;;;;;;;;14.54;63.10;100542.72;1735837;81;25802;-54
2022/06/23 00:34:25;;;;;;;;;;;;;;;14.55;63.20;100543.59;1741764;81;26598;-54
2022/06/23 00:37:06;;;;;;;;;;;;;;;14.50;63.12;100540.52;1733732;81;25941;-54
2022/06/23 00:39:44;;;;;;;;;;;;;;;14.47;63.16;100536.81;1748513;80;27476;-55
2022/06/23 00:42:28;;;;;;;;;;;;;;;14.47;63.46;100532.23;1743466;80;25701;-55
2022/06/23 00:45:01;;;;;;;;;;;;;;;14.53;62.69;100532.08;1759043;80;25774;-54
2022/06/23 00:47:47;;;;;;;;;;;;;;;14.58;62.59;100531.57;1721123;81;25890;-55
2022/06/23 00:50:22;;;;;;;;;;;;;;;14.62;62.57;100524.78;1716386;82;25794;-55
2022/06/23 00:52:55;;;;;;;;;;;;;;;14.65;62.23;100522.62;1707310;83;27714;-55
2022/06/23 00:55:46;;;;;;;;;;;;;;;14.75;61.93;100534.66;1661144;85;26330;-54
2022/06/23 00:58:34;;;;;;;;;;;;;;;14.81;61.67;100534.48;1677321;84;25782;-55
2022/06/23 01:01:25;;;;;;;;;;;;;;;14.83;61.90;100536.00;1645597;86;26810;-55
2022/06/23 01:04:17;;;;;;;;;;;;;;;14.79;62.49;100536.51;1637066;86;25877;-55
2022/06/23 01:06:50;;;;;;;;;;;;;;;14.66;62.77;100532.44;1667246;84;28301;-55
2022/06/23 01:09:26;;;;;;;;;;;;;;;14.58;63.00;100535.11;1696878;83;25857;-54
2022/06/23 01:11:59;;;;;;;;;;;;;;;14.50;62.78;100525.63;1706875;83;25793;-55
2022/06/23 01:14:43;;;;;;;;;;;;;;;14.53;62.39;100531.55;1704398;83;25873;-54
2022/06/23 01:17:19;;;;;;;;;;;;;;;14.58;62.32;100518.87;1714400;82;25887;-54
2022/06/23 01:19:52;;;;;;;;;;;;;;;14.64;61.97;100523.62;1708884;83;28179;-54
2022/06/23 01:22:51;;;;;;;;;;;;;;;14.68;62.25;100529.06;1717075;83;25743;-56
2022/06/23 01:25:44;;;;;;;;;;;;;;;14.69;61.80;100519.09;1714513;83;25658;-54
2022/06/23 01:28:25;;;;;;;;;;;;;;;14.72;61.66;100541.75;1709127;83;26083;-55
2022/06/23 01:31:20;;;;;;;;;;;;;;;14.70;61.63;100539.22;1706805;83;26431;-55
2022/06/23 01:33:56;;;;;;;;;;;;;;;14.69;61.74;100539.40;1707821;82;28723;-55
2022/06/23 01:36:46;;;;;;;;;;;;;;;14.60;62.42;100549.33;1702140;83;25824;-56
2022/06/23 01:39:34;;;;;;;;;;;;;;;14.51;62.46;100547.62;1712339;82;25449;-54
2022/06/23 01:42:16;;;;;;;;;;;;;;;14.43;62.85;100551.19;1697832;82;25818;-55
2022/06/23 01:44:52;;;;;;;;;;;;;;;14.40;62.98;100554.22;1689109;83;25752;-55
2022/06/23 01:47:28;;;;;;;;;;;;;;;14.36;63.28;100546.95;1731862;81;27713;-55
2022/06/23 01:50:05;;;;;;;;;;;;;;;14.32;63.18;100553.69;1701932;83;25693;-55
2022/06/23 01:52:31;;;;;;;;;;;;;;;14.30;63.21;100550.81;1677298;83;25731;-55
2022/06/23 01:55:02;;;;;;;;;;;;;;;14.29;63.32;100554.53;1708674;82;26557;-56
2022/06/23 01:57:38;;;;;;;;;;;;;;;14.31;63.06;100551.16;1709513;83;25824;-56
2022/06/23 02:00:20;;;;;;;;;;;;;;;14.32;63.19;100556.39;1704935;83;27673;-55
2022/06/23 02:03:11;;;;;;;;;;;;;;;14.25;63.57;100557.55;1706571;82;25704;-55
2022/06/23 02:05:42;;;;;;;;;;;;;;;14.12;63.99;100557.20;1709828;82;25904;-55
2022/06/23 02:08:32;;;;;;;;;;;;;;;14.00;63.76;100559.37;1707058;83;25776;-56
2022/06/23 02:11:09;;;;;;;;;;;;;;;13.95;64.45;100560.86;1711322;83;25789;-56
2022/06/23 02:13:45;;;;;;;;;;;;;;;13.91;64.70;100573.88;1706042;83;27097;-54
2022/06/23 02:16:21;;;;;;;;;;;;;;;13.91;65.01;100571.16;1709400;83;25921;-54
2022/06/23 02:18:51;;;;;;;;;;;;;;;13.89;65.34;100582.64;1701065;83;25705;-55
2022/06/23 02:21:35;;;;;;;;;;;;;;;13.89;64.79;100577.23;1708955;83;26039;-54
2022/06/23 02:24:08;;;;;;;;;;;;;;;13.89;65.22;100584.86;1662413;85;25908;-54
2022/06/23 02:26:38;;;;;;;;;;;;;;;13.92;64.96;100584.52;1671279;85;28194;-55
2022/06/23 02:29:09;;;;;;;;;;;;;;;13.93;64.75;100585.38;1663906;85;25837;-55
2022/06/23 02:31:39;;;;;;;;;;;;;;;13.95;65.02;100584.69;1658162;85;25731;-54
2022/06/23 02:34:12;;;;;;;;;;;;;;;13.96;65.02;100592.31;1679159;85;26947;-55
2022/06/23 02:36:57;;;;;;;;;;;;;;;14.01;64.43;100593.52;1679989;84;26103;-54
2022/06/23 02:39:39;;;;;;;;;;;;;;;14.08;64.17;100589.14;1714672;80;27736;-55
2022/06/23 02:42:15;;;;;;;;;;;;;;;14.17;63.95;100591.36;1744277;80;25752;-54
2022/06/23 02:45:00;;;;;;;;;;;;;;;14.29;63.79;100591.92;1756881;80;25847;-55
2022/06/23 02:47:55;;;;;;;;;;;;;;;14.43;63.59;100589.56;1736119;80;25931;-55
2022/06/23 02:50:35;;;;;;;;;;;;;;;14.44;63.39;100579.92;1741919;81;25718;-55
2022/06/23 02:53:26;;;;;;;;;;;;;;;14.37;63.48;100574.34;1719576;82;27182;-53
2022/06/23 02:56:09;;;;;;;;;;;;;;;14.31;63.97;100573.64;1721011;81;25692;-56
2022/06/23 02:58:39;;;;;;;;;;;;;;;14.25;64.01;100568.90;1701383;81;25768;-52
2022/06/23 03:01:15;;;;;;;;;;;;;;;14.24;64.35;100571.27;1721357;81;26803;-53
2022/06/23 03:03:45;;;;;;;;;;;;;;;14.25;64.48;100570.25;1729421;82;26245;-54
2022/06/23 03:06:27;;;;;;;;;;;;;;;14.31;64.26;100570.93;1732432;81;27645;-53
2022/06/23 03:09:17;;;;;;;;;;;;;;;14.38;64.13;100569.28;1730515;81;25793;-53
2022/06/23 03:11:53;;;;;;;;;;;;;;;14.40;64.06;100568.58;1720373;82;25751;-55
2022/06/23 03:14:45;;;;;;;;;;;;;;;14.42;63.98;100571.63;1733019;81;25967;-55
2022/06/23 03:17:17;;;;;;;;;;;;;;;14.47;63.63;100568.77;1723255;81;26131;-55
2022/06/23 03:19:50;;;;;;;;;;;;;;;14.63;63.37;100557.61;1721683;82;27082;-55
2022/06/23 03:22:29;;;;;;;;;;;;;;;14.76;63.17;100559.36;1723360;81;25884;-56
2022/06/23 03:25:24;;;;;;;;;;;;;;;14.82;62.84;100563.26;1733392;81;25885;-56
2022/06/23 03:27:54;;;;;;;;;;;;;;;14.85;62.41;100550.71;1718314;81;26037;-56
2022/06/23 03:30:33;;;;;;;;;;;;;;;14.83;62.24;100557.66;1686601;83;25713;-55
2022/06/23 03:33:03;;;;;;;;;;;;;;;14.89;62.05;100557.98;1719688;82;27510;-56
2022/06/23 03:35:41;;;;;;;;;;;;;;;14.88;61.91;100547.67;1719790;81;25823;-55
2022/06/23 03:41:38;;;;;;;;;;;;;;;14.96;61.69;100559.86;1714270;82;26768;-54
2022/06/23 03:44:28;;;;;;;;;;;;;;;15.15;61.37;100565.41;1708950;83;25944;-53
2022/06/23 03:47:16;;;;;;;;;;;;;;;15.27;61.30;100565.93;1741351;81;27493;-52
2022/06/23 03:49:52;;;;;;;;;;;;;;;15.36;60.83;100563.20;1735266;81;27344;-54
2022/06/23 03:52:31;;;;;;;;;;;;;;;15.42;60.67;100568.75;1745219;81;25625;-55
2022/06/23 03:55:01;;;;;;;;;;;;;;;15.49;60.57;100573.84;1744346;82;25881;-55
2022/06/23 03:57:31;;;;;;;;;;;;;;;15.52;60.24;100580.77;1742072;80;25814;-56
2022/06/23 04:00:10;;;;;;;;;;;;;;;15.48;59.90;100575.34;1744042;82;27624;-55
2022/06/23 04:02:43;;;;;;;;;;;;;;;15.46;60.02;100572.82;1742169;80;25906;-55
2022/06/23 04:05:16;;;;;;;;;;;;;;;15.53;59.90;100577.05;1728968;80;25633;-53
2022/06/23 04:08:00;;;;;;;;;;;;;;;15.59;59.93;100573.63;1742685;81;25804;-55
2022/06/23 04:10:33;;;;;;;;;;;;;;;15.64;59.95;100573.11;1737386;80;25875;-56
2022/06/23 04:13:04;;;;;;;;;;;;;;;15.72;59.99;100574.96;1744332;81;27505;-55
2022/06/23 04:15:36;;;;;;;;;;;;;;;15.78;59.91;100576.96;1744219;81;25878;-55
2022/06/23 04:18:18;;;;;;;;;;;;;;;15.83;59.92;100581.86;1739990;81;25715;-55
2022/06/23 04:21:03;;;;;;;;;;;;;;;15.87;59.89;100585.44;1743317;81;25743;-54
2022/06/23 04:23:33;;;;;;;;;;;;;;;15.92;59.77;100583.55;1732792;81;26513;-55
2022/06/23 04:26:19;;;;;;;;;;;;;;;15.98;59.49;100588.79;1743148;81;27730;-55
2022/06/23 04:28:49;;;;;;;;;;;;;;;16.04;59.30;100597.57;1743846;81;25879;-55
2022/06/23 04:31:22;;;;;;;;;;;;;;;16.11;59.50;100603.48;1744758;80;25764;-55
2022/06/23 04:33:48;;;;;;;;;;;;;;;16.19;59.46;100609.36;1742821;81;25965;-54
2022/06/23 04:36:18;;;;;;;;;;;;;;;16.26;59.20;100606.79;1747762;80;25780;-55
2022/06/23 04:38:56;;;;;;;;;;;;;;;16.33;58.77;100601.50;1743923;82;27521;-54
2022/06/23 04:41:27;;;;;;;;;;;;;;;16.45;58.42;100604.13;1708936;81;25449;-52
2022/06/23 04:44:00;;;;;;;;;;;;;;;16.53;58.42;100612.75;1709128;82;25765;-55
2022/06/23 04:46:48;;;;;;;;;;;;;;;16.59;57.70;100615.59;1730594;80;25881;-54
2022/06/23 04:49:36;;;;;;;;;;;;;;;16.67;57.46;100618.78;1726483;82;25443;-54
2022/06/23 04:52:21;;;;;;;;;;;;;;;16.78;57.40;100615.28;1720811;82;29590;-53
2022/06/23 04:55:20;;;;;;;;;;;;;;;16.86;56.33;100621.52;1740749;82;25468;-54
2022/06/23 04:57:50;;;;;;;;;;;;;;;16.94;56.10;100619.80;1723486;82;26060;-55
2022/06/23 05:00:27;;;;;;;;;;;;;;;17.01;55.57;100616.17;1721553;82;25792;-54
2022/06/23 05:03:02;;;;;;;;;;;;;;;17.09;55.40;100610.34;1724547;82;26084;-54
2022/06/23 05:05:36;;;;;;;;;;;;;;;17.14;55.70;100607.41;1726191;82;27586;-54
2022/06/23 05:08:12;;;;;;;;;;;;;;;17.23;55.71;100611.41;1731264;82;25458;-55
2022/06/23 05:10:48;;;;;;;;;;;;;;;17.33;55.25;100608.74;1723071;82;25749;-55
2022/06/23 05:13:18;;;;;;;;;;;;;;;17.37;54.64;100609.22;1723051;82;25767;-56
2022/06/23 05:16:11;;;;;;;;;;;;;;;17.41;54.87;100603.75;1719592;82;25852;-54
2022/06/23 05:18:46;;;;;;;;;;;;;;;17.46;54.50;100599.11;1718071;82;28383;-54
2022/06/23 05:21:27;;;;;;;;;;;;;;;17.55;54.64;100601.22;1740597;82;25824;-53
2022/06/23 05:24:01;;;;;;;;;;;;;;;17.60;54.28;100600.98;1719319;82;25794;-53
2022/06/23 05:26:31;;;;;;;;;;;;;;;17.67;54.39;100610.09;1724514;82;26698;-56
2022/06/23 05:29:01;;;;;;;;;;;;;;;17.74;53.25;100605.28;1733917;82;25862;-54
2022/06/23 05:31:32;;;;;;;;;;;;;;;17.77;53.29;100597.58;1734959;82;28503;-55
2022/06/23 05:34:05;;;;;;;;;;;;;;;17.81;53.44;100608.40;1729009;82;25794;-54
2022/06/23 05:36:38;;;;;;;;;;;;;;;17.90;53.53;100598.78;1717698;82;25712;-55
2022/06/23 05:39:21;;;;;;;;;;;;;;;18.07;53.01;100590.77;1723781;82;25792;-53
2022/06/23 05:41:51;;;;;;;;;;;;;;;18.18;52.57;100601.70;1737380;81;26199;-55
2022/06/23 05:44:21;;;;;;;;;;;;;;;18.26;52.61;100601.59;1745376;80;27689;-53
2022/06/23 05:46:49;;;;;;;;;;;;;;;18.32;51.98;100600.48;1739007;81;25841;-55
2022/06/23 05:49:19;;;;;;;;;;;;;;;18.41;52.05;100601.56;1734775;81;25993;-54
2022/06/23 05:51:59;;;;;;;;;;;;;;;18.56;51.91;100617.83;1733242;81;25828;-53
2022/06/23 05:54:46;;;;;;;;;;;;;;;18.74;51.13;100609.23;1737600;81;25815;-54
2022/06/23 05:57:31;;;;;;;;;;;;;;;18.89;50.92;100625.52;1714031;82;27636;-55
2022/06/23 06:00:14;;;;;;;;;;;;;;;18.98;50.62;100615.34;1690179;81;25537;-55
2022/06/23 06:02:44;;;;;;;;;;;;;;;19.11;50.18;100625.52;1738985;81;25446;-54
2022/06/23 06:05:17;;;;;;;;;;;;;;;19.10;49.92;100628.45;1742063;80;26808;-54
2022/06/23 06:07:44;;;;;;;;;;;;;;;19.14;49.79;100621.59;1712797;82;25743;-55
2022/06/23 06:10:19;;;;;;;;;;;;;;;19.24;49.87;100623.43;1722830;82;27519;-54
2022/06/23 06:12:46;;;;;;;;;;;;;;;19.30;49.70;100620.44;1719867;80;25849;-56
2022/06/23 06:15:29;;;;;;;;;;;;;;;19.44;48.84;100617.30;1732485;80;25739;-54
2022/06/23 06:18:11;;;;;;;;;;;;;;;19.49;49.18;100628.47;1712636;81;25815;-54
2022/06/23 06:20:37;;;;;;;;;;;;;;;19.58;48.96;100624.55;1735195;80;25583;-53
2022/06/23 06:23:13;;;;;;;;;;;;;;;19.66;48.47;100629.84;1717596;81;28445;-55
2022/06/23 06:25:44;;;;;;;;;;;;;;;19.75;48.38;100626.95;1717606;83;25834;-55
2022/06/23 06:28:22;;;;;;;;;;;;;;;19.81;48.17;100637.06;1673699;82;25756;-54
2022/06/23 06:31:12;;;;;;;;;;;;;;;19.83;48.25;100635.81;1711771;83;26012;-55
2022/06/23 06:34:07;;;;;;;;;;;;;;;19.92;48.02;100634.31;1740392;80;25816;-55
2022/06/23 06:36:39;;;;;;;;;;;;;;;19.94;47.75;100628.14;1739188;81;27651;-55
2022/06/23 06:39:15;;;;;;;;;;;;;;;19.95;48.12;100631.19;1718659;80;25764;-54
2022/06/23 06:41:44;;;;;;;;;;;;;;;19.97;47.84;100630.48;1704143;83;25787;-55
2022/06/23 06:44:12;;;;;;;;;;;;;;;20.02;47.95;100627.97;1711380;83;25753;-53
2022/06/23 06:46:40;;;;;;;;;;;;;;;20.13;47.59;100615.11;1744489;80;25762;-55
2022/06/23 06:49:16;;;;;;;;;;;;;;;20.25;47.49;100622.73;1697014;83;27443;-54
2022/06/23 06:51:43;;;;;;;;;;;;;;;20.36;47.13;100624.02;1714731;83;25463;-56
2022/06/23 06:54:22;;;;;;;;;;;;;;;20.40;47.34;100620.67;1706339;83;25878;-55
2022/06/23 06:56:55;;;;;;;;;;;;;;;20.35;46.76;100629.99;1709948;83;26448;-55
2022/06/23 06:59:37;;;;;;;;;;;;;;;20.32;47.06;100618.95;1714729;82;25740;-56
2022/06/23 07:02:13;;;;;;;;;;;;;;;20.43;46.96;100616.69;1713000;82;28461;-55
2022/06/23 07:04:52;;;;;;;;;;;;;;;20.68;45.99;100617.48;1710384;83;25836;-55
2022/06/23 07:07:22;;;;;;;;;;;;;;;20.94;44.83;100614.81;1718408;82;25735;-54
2022/06/23 07:09:57;;;;;;;;;;;;;;;21.07;44.73;100624.92;1742419;81;26009;-55
2022/06/23 07:12:30;;;;;;;;;;;;;;;21.19;44.31;100622.42;1717098;82;25778;-56
2022/06/23 07:15:03;;;;;;;;;;;;;;;21.37;43.79;100624.51;1743757;81;28517;-55
2022/06/23 07:17:37;;;;;;;;;;;;;;;21.56;43.95;100628.81;1744528;82;25788;-53
2022/06/23 07:20:16;;;;;;;;;;;;;;;21.72;43.42;100642.08;1727469;81;25774;-56
2022/06/23 07:22:58;;;;;;;;;;;;;;;21.85;42.54;100623.41;1720884;80;25868;-54
2022/06/23 07:25:29;;;;;;;;;;;;;;;21.92;42.92;100628.05;1727615;81;25918;-55
2022/06/23 07:28:08;;;;;;;;;;;;;;;21.97;43.20;100630.97;1728363;81;27547;-55
2022/06/23 07:30:44;;;;;;;;;;;;;;;22.01;42.77;100631.69;1714508;81;26006;-56
2022/06/23 07:33:17;;;;;;;;;;;;;;;22.11;42.95;100627.66;1717387;82;25808;-56
2022/06/23 07:35:53;;;;;;;;;;;;;;;22.21;42.27;100632.15;1718146;81;25727;-55
2022/06/23 07:38:38;;;;;;;;;;;;;;;22.18;42.71;100642.16;1733055;81;25834;-56
2022/06/23 07:41:11;;;;;;;;;;;;;;;22.18;42.86;100638.91;1730244;82;27717;-56
2022/06/23 07:43:53;;;;;;;;;;;;;;;22.23;42.78;100644.25;1734718;82;25438;-56
2022/06/23 07:46:20;;;;;;;;;;;;;;;22.30;42.48;100648.66;1718196;82;25855;-56
2022/06/23 07:48:47;;;;;;;;;;;;;;;22.37;42.33;100641.76;1728171;81;26031;-56
2022/06/23 07:51:14;;;;;;;;;;;;;;;22.45;41.92;100640.20;1722566;81;25845;-56
2022/06/23 07:53:44;;;;;;;;;;;;;;;22.48;42.37;100643.02;1743481;81;27449;-56
2022/06/23 07:56:14;;;;;;;;;;;;;;;22.51;42.28;100648.05;1701415;83;26153;-56
2022/06/23 07:58:42;;;;;;;;;;;;;;;22.57;42.05;100640.34;1725263;81;25806;-55
2022/06/23 08:01:27;;;;;;;;;;;;;;;22.59;41.64;100629.97;1715063;82;25832;-56
2022/06/23 08:04:17;;;;;;;;;;;;;;;22.60;41.51;100636.31;1718567;81;25706;-55
2022/06/23 08:06:44;;;;;;;;;;;;;;;22.53;41.83;100633.60;1712625;83;27836;-56
2022/06/23 08:09:27;;;;;;;;;;;;;;;22.72;41.33;100632.34;1728716;80;25783;-56
2022/06/23 08:18:04;;;;;;;;;;;;;;;23.17;40.63;100634.14;1736217;80;25804;-56
2022/06/23 08:20:34;;;;;;;;;;;;;;;23.21;40.19;100634.02;1731059;80;27511;-56
2022/06/23 08:23:02;;;;;;;;;;;;;;;23.24;40.39;100639.91;1684210;83;25780;-56
2022/06/23 08:25:29;;;;;;;;;;;;;;;23.27;40.35;100623.00;1728732;81;25752;-55
2022/06/23 08:27:58;;;;;;;;;;;;;;;23.34;40.59;100633.92;1727500;81;26381;-55
2022/06/23 08:30:25;;;;;;;;;;;;;;;23.42;40.19;100630.89;1716858;82;25711;-55
2022/06/23 08:32:54;;;;;;;;;;;;;;;23.49;40.08;100628.61;1717418;82;27500;-55
2022/06/23 08:35:41;;;;;;;;;;;;;;;23.49;39.96;100627.23;1726804;81;25747;-53
2022/06/23 08:38:17;;;;;;;;;;;;;;;23.60;40.37;100622.38;1733257;80;25828;-56
2022/06/23 08:41:19;;;;;;;;;;;;;;;23.68;39.81;100624.83;1707999;82;27931;-54
2022/06/23 08:44:02;;;;;;;;;;;;;;;23.83;39.16;100633.23;1707142;82;25697;-56
2022/06/23 08:46:34;;;;;;;;;;;;;;;24.01;38.89;100629.14;1734280;80;27526;-55
2022/06/23 08:49:13;;;;;;;;;;;;;;;24.16;38.89;100635.62;1749624;80;25915;-54
2022/06/23 08:52:03;;;;;;;;;;;;;;;24.41;37.99;100626.98;1754482;80;25711;-56
2022/06/23 08:54:50;;;;;;;;;;;;;;;24.64;37.93;100639.98;1739282;80;25822;-53
2022/06/23 08:57:29;;;;;;;;;;;;;;;24.89;37.35;100641.22;1706054;81;25791;-55
2022/06/23 09:00:02;;;;;;;;;;;;;;;24.84;36.46;100639.72;1744761;82;27660;-56
2022/06/23 09:02:41;;;;;;;;;;;;;;;24.81;36.44;100638.80;1742148;81;25810;-56
2022/06/23 09:05:29;;;;;;;;;;;;;;;24.81;36.21;100643.79;1727314;81;25861;-56
2022/06/23 09:08:11;;;;;;;;;;;;;;;24.98;36.55;100637.61;1724237;80;25827;-56
2022/06/23 09:10:45;;;;;;;;;;;;;;;25.12;36.40;100638.23;1718548;81;25963;-56
2022/06/23 09:13:30;;;;;;;;;;;;;;;25.12;36.13;100640.44;1716982;80;27596;-55
2022/06/23 09:16:03;;;;;;;;;;;;;;;25.15;35.73;100641.88;1727622;80;25710;-55
2022/06/23 09:18:57;;;;;;;;;;;;;;;24.97;36.15;100654.64;1721049;82;25828;-56
2022/06/23 09:21:36;;;;;;;;;;;;;;;24.88;35.65;100649.17;1725816;81;26707;-56
2022/06/23 09:24:23;;;;;;;;;;;;;;;24.96;36.14;100650.23;1713702;81;26044;-55
2022/06/23 09:26:53;;;;;;;;;;;;;;;25.22;36.40;100654.16;1720086;82;28473;-56
2022/06/23 09:29:26;;;;;;;;;;;;;;;25.37;35.53;100651.77;1713613;82;25731;-56
2022/06/23 09:32:11;;;;;;;;;;;;;;;25.18;35.25;100647.47;1743363;81;25446;-56
2022/06/23 09:34:52;;;;;;;;;;;;;;;24.98;36.02;100662.38;1740556;81;25863;-58
2022/06/23 09:37:31;;;;;;;;;;;;;;;24.83;36.25;100665.55;1732915;81;25768;-57
2022/06/23 09:40:16;;;;;;;;;;;;;;;24.73;36.57;100659.25;1743909;80;27059;-55
2022/06/23 09:43:06;;;;;;;;;;;;;;;24.87;36.38;100658.52;1716784;81;25885;-56
2022/06/23 09:46:05;;;;;;;;;;;;;;;25.23;35.84;100650.33;1668870;83;25785;-56
2022/06/23 09:48:39;;;;;;;;;;;;;;;25.30;35.97;100665.67;1763780;80;25838;-57
2022/06/23 09:51:15;;;;;;;;;;;;;;;25.35;35.21;100664.11;1739626;80;25794;-56
2022/06/23 09:53:59;;;;;;;;;;;;;;;25.23;35.70;100653.94;1717469;82;27498;-57
2022/06/23 09:56:32;;;;;;;;;;;;;;;25.13;35.95;100645.42;1717315;82;25757;-56
2022/06/23 09:59:22;;;;;;;;;;;;;;;24.86;36.30;100658.22;1718954;82;25440;-55
2022/06/23 10:02:01;;;;;;;;;;;;;;;24.54;36.38;100664.76;1720292;81;25864;-56
2022/06/23 10:04:40;;;;;;;;;;;;;;;24.21;36.92;100666.00;1706395;81;25511;-56
2022/06/23 10:07:16;;;;;;;;;;;;;;;23.90;37.54;100666.95;1716974;81;27712;-56
2022/06/23 10:10:05;;;;;;;;;;;;;;;23.80;37.51;100671.61;1710595;82;25755;-56
2022/06/23 10:13:05;;;;;;;;;;;;;;;23.71;37.78;100669.67;1740882;81;26030;-55
2022/06/23 10:15:44;;;;;;;;;;;;;;;23.41;38.32;100672.27;1740817;81;25834;-56
2022/06/23 10:18:14;;;;;;;;;;;;;;;23.35;38.81;100673.18;1734977;80;26150;-55
2022/06/23 10:20:45;;;;;;;;;;;;;;;23.40;38.76;100675.56;1712252;80;27558;-56
2022/06/23 10:23:30;;;;;;;;;;;;;;;23.46;38.68;100671.09;1738808;80;26027;-55
2022/06/23 10:26:18;;;;;;;;;;;;;;;23.39;38.50;100676.63;1743759;80;25711;-55
2022/06/23 10:28:57;;;;;;;;;;;;;;;23.39;38.80;100673.88;1741549;81;26732;-55
2022/06/23 10:31:42;;;;;;;;;;;;;;;23.39;39.28;100664.81;1742648;80;25866;-56
2022/06/23 10:34:18;;;;;;;;;;;;;;;23.51;38.89;100671.78;1713340;82;27489;-56
2022/06/23 10:37:22;;;;;;;;;;;;;;;23.60;38.88;100671.81;1723877;80;26397;-55
2022/06/23 10:40:04;;;;;;;;;;;;;;;23.74;39.03;100662.36;1716408;80;25777;-55
2022/06/23 10:42:53;;;;;;;;;;;;;;;24.33;38.58;100657.84;1710640;80;26560;-56
2022/06/23 10:45:25;;;;;;;;;;;;;;;24.82;37.59;100659.74;1730262;81;26001;-55
2022/06/23 10:48:02;;;;;;;;;;;;;;;24.73;36.80;100662.00;1719813;80;27500;-55
2022/06/23 10:50:51;;;;;;;;;;;;;;;24.66;36.67;100645.55;1730811;81;26665;-55
2022/06/23 10:53:28;;;;;;;;;;;;;;;24.59;36.83;100654.44;1719507;81;25829;-55
2022/06/23 10:56:01;;;;;;;;;;;;;;;24.69;36.89;100654.75;1726214;81;27964;-56
2022/06/23 10:58:40;;;;;;;;;;;;;;;24.71;36.80;100664.14;1738472;81;25881;-56
2022/06/23 11:01:35;;;;;;;;;;;;;;;24.73;36.86;100655.64;1720987;81;27524;-56
2022/06/23 11:04:38;;;;;;;;;;;;;;;25.46;36.38;100657.27;1725919;81;26482;-55
2022/06/23 11:07:32;;;;;;;;;;;;;;;25.75;35.62;100660.70;1717184;81;25877;-56
2022/06/23 11:10:19;;;;;;;;;;;;;;;25.72;35.19;100659.79;1730575;80;25852;-56
2022/06/23 11:13:24;;;;;;;;;;;;;;;26.52;33.66;100648.56;1726626;81;27260;-56
2022/06/23 11:15:59;;;;;;;;;;;;;;;26.71;33.23;100649.74;1722552;82;45617;-56
2022/06/23 11:18:52;;;;;;;;;;;;;;;26.99;33.06;100659.11;1720795;81;25921;-55
2022/06/23 11:21:46;;;;;;;;;;;;;;;27.06;32.27;100654.27;1712421;82;25803;-55
2022/06/23 11:24:37;;;;;;;;;;;;;;;27.04;32.09;100660.57;1707511;82;27878;-56
2022/06/23 11:27:13;;;;;;;;;;;;;;;27.22;32.13;100657.28;1699511;82;25935;-56
2022/06/23 11:30:09;;;;;;;;;;;;;;;27.20;32.25;100656.16;1721852;81;27516;-56
2022/06/23 11:33:06;;;;;;;;;;;;;;;27.56;32.13;100655.38;1709469;82;25474;-56
2022/06/23 11:36:08;;;;;;;;;;;;;;;27.54;31.96;100656.73;1729086;80;25761;-56
2022/06/23 11:38:44;;;;;;;;;;;;;;;27.37;31.68;100641.51;1714063;81;25885;-55
2022/06/23 11:41:23;;;;;;;;;;;;;;;27.11;32.11;100654.89;1721665;80;25688;-55
2022/06/23 11:44:11;;;;;;;;;;;;;;;26.78;32.15;100655.15;1703816;83;27539;-56
2022/06/23 11:46:47;;;;;;;;;;;;;;;26.40;33.07;100655.50;1742085;80;25793;-55
2022/06/23 11:49:20;;;;;;;;;;;;;;;26.09;33.61;100659.55;1708493;82;25762;-55
2022/06/23 11:52:21;;;;;;;;;;;;;;;25.90;33.60;100655.52;1708167;82;25819;-55
2022/06/23 11:55:07;;;;;;;;;;;;;;;25.78;33.96;100660.20;1713099;81;25869;-56
2022/06/23 11:57:52;;;;;;;;;;;;;;;25.59;34.02;100652.09;1705881;82;27687;-56
2022/06/23 12:00:23;;;;;;;;;;;;;;;25.67;34.21;100651.42;1733655;81;25755;-55
2022/06/23 12:02:53;;;;;;;;;;;;;;;25.83;33.90;100649.31;1735845;80;25890;-56
2022/06/23 12:05:54;;;;;;;;;;;;;;;25.90;33.48;100645.88;1741504;80;26058;-55
2022/06/23 12:08:36;;;;;;;;;;;;;;;25.82;33.23;100646.25;1735247;80;26184;-55
2022/06/23 12:11:03;;;;;;;;;;;;;;;25.84;33.64;100648.23;1710446;80;29772;-56
2022/06/23 12:13:33;;;;;;;;;;;;;;;25.93;33.95;100648.16;1728395;80;26464;-55
2022/06/23 12:16:01;;;;;;;;;;;;;;;25.97;33.78;100645.76;1736288;80;26359;-55
2022/06/23 12:18:43;;;;;;;;;;;;;;;26.07;33.11;100654.77;1734912;80;25780;-55
2022/06/23 12:21:21;;;;;;;;;;;;;;;26.02;33.04;100651.92;1734051;80;25854;-55
2022/06/23 12:24:08;;;;;;;;;;;;;;;25.92;33.62;100653.38;1730927;81;27513;-55
2022/06/23 12:26:38;;;;;;;;;;;;;;;26.04;33.52;100657.48;1741464;81;25811;-56
2022/06/23 12:29:26;;;;;;;;;;;;;;;26.03;33.43;100658.56;1736881;81;25447;-56
2022/06/23 12:32:13;;;;;;;;;;;;;;;25.96;32.98;100655.10;1682889;82;25900;-55
2022/06/23 12:34:43;;;;;;;;;;;;;;;25.83;33.27;100653.97;1723417;81;25942;-55
2022/06/23 12:37:16;;;;;;;;;;;;;;;25.63;33.69;100656.02;1744971;81;28378;-55
2022/06/23 12:39:50;;;;;;;;;;;;;;;25.52;33.70;100656.85;1723847;81;25682;-55
2022/06/23 12:42:37;;;;;;;;;;;;;;;25.38;33.82;100652.62;1723255;81;25806;-55
2022/06/23 12:45:22;;;;;;;;;;;;;;;25.26;34.15;100660.33;1711166;81;25983;-55
2022/06/23 12:48:17;;;;;;;;;;;;;;;25.17;34.47;100665.88;1729413;81;25696;-55
2022/06/23 12:51:08;;;;;;;;;;;;;;;25.08;34.40;100661.78;1744157;81;27464;-55
2022/06/23 12:54:08;;;;;;;;;;;;;;;25.22;34.32;100656.91;1725249;81;25816;-55
2022/06/23 12:56:55;;;;;;;;;;;;;;;25.31;34.11;100662.38;1725263;80;26420;-56
2022/06/23 12:59:26;;;;;;;;;;;;;;;25.33;34.43;100651.14;1726893;81;25987;-55
2022/06/23 13:02:02;;;;;;;;;;;;;;;25.24;34.40;100656.97;1722613;82;25852;-56
2022/06/23 13:04:35;;;;;;;;;;;;;;;25.33;34.35;100649.77;1686686;83;27530;-56
2022/06/23 13:07:11;;;;;;;;;;;;;;;25.37;34.35;100654.53;1693563;83;25820;-56
2022/06/23 13:09:50;;;;;;;;;;;;;;;25.42;34.24;100648.34;1698126;83;25855;-56
2022/06/23 13:12:33;;;;;;;;;;;;;;;25.50;34.11;100648.53;1702765;81;26001;-56
2022/06/23 13:15:05;;;;;;;;;;;;;;;25.52;34.32;100659.61;1726526;80;26491;-56
2022/06/23 13:17:56;;;;;;;;;;;;;;;25.52;34.46;100662.36;1743594;80;27482;-56
2022/06/23 13:20:29;;;;;;;;;;;;;;;25.51;33.83;100659.30;1749010;80;25811;-56
2022/06/23 13:23:03;;;;;;;;;;;;;;;25.46;33.44;100651.75;1739756;80;25791;-57
2022/06/23 13:25:33;;;;;;;;;;;;;;;25.29;33.75;100654.36;1703874;82;25970;-56
2022/06/23 13:28:00;;;;;;;;;;;;;;;25.06;34.23;100657.91;1726228;80;25808;-56
2022/06/23 13:30:30;;;;;;;;;;;;;;;24.95;34.58;100662.83;1735037;80;27479;-56
2022/06/23 13:33:16;;;;;;;;;;;;;;;24.87;34.77;100657.14;1721791;80;25923;-56
2022/06/23 13:35:45;;;;;;;;;;;;;;;24.77;34.75;100656.87;1742084;81;25719;-55
2022/06/23 13:38:20;;;;;;;;;;;;;;;24.73;34.51;100652.89;1736693;80;26810;-56
2022/06/23 13:40:53;;;;;;;;;;;;;;;24.63;34.96;100652.06;1722528;80;25727;-55
2022/06/23 13:43:57;;;;;;;;;;;;;;;24.57;35.26;100659.32;1738609;81;28347;-56